Time;durP1;ratioP1;P1;durP2;ratioP2;P2;SDS_P1;SDS_P2;PMS_P1;PMS_P2;Temp;Humidity;BMP_temperature;BMP_pressure;BME280_temperature;BME280_humidity;BME280_pressure;Samples;Min_cycle;Max_cycle;Signal;HPM_P1;HPM_P2
2023/05/02 00:01:19;;;;;;;25.92;18.92;;;11.00;99.90;;;;;;5008709;28;20115;-78
2023/05/02 00:03:45;;;;;;;28.00;20.02;;;11.10;99.90;;;;;;5038124;28;20043;-78
2023/05/02 00:06:10;;;;;;;22.65;15.32;;;11.00;99.90;;;;;;5017564;28;20033;-78
2023/05/02 00:08:36;;;;;;;26.63;18.45;;;11.00;99.90;;;;;;5025891;28;20029;-78
2023/05/02 00:11:02;;;;;;;31.70;21.27;;;10.90;99.90;;;;;;5023839;28;20037;-78
2023/05/02 00:13:27;;;;;;;21.60;13.55;;;10.80;99.90;;;;;;5040288;28;20476;-79
2023/05/02 00:15:53;;;;;;;22.17;15.98;;;10.70;99.90;;;;;;5008269;28;20043;-78
2023/05/02 00:18:18;;;;;;;28.98;21.15;;;10.70;99.90;;;;;;5042188;28;20028;-78
2023/05/02 00:20:44;;;;;;;31.92;23.17;;;10.60;99.90;;;;;;5008935;28;20029;-79
2023/05/02 00:23:11;;;;;;;38.33;23.60;;;10.40;99.90;;;;;;5041883;28;20033;-78
2023/05/02 00:25:44;;;;;;;36.20;21.33;;;10.40;99.90;;;;;;5023990;28;20041;-78
2023/05/02 00:28:09;;;;;;;30.08;19.55;;;10.50;99.90;;;;;;5026265;28;20025;-78
2023/05/02 00:30:35;;;;;;;39.80;25.58;;;10.40;99.90;;;;;;5009055;28;20103;-78
2023/05/02 00:33:01;;;;;;;44.58;29.23;;;10.50;99.90;;;;;;5023839;28;20045;-78
2023/05/02 00:35:26;;;;;;;47.38;29.17;;;10.40;99.90;;;;;;5008224;28;20453;-78
2023/05/02 00:37:52;;;;;;;42.88;28.80;;;10.40;99.90;;;;;;5024218;28;20037;-78
2023/05/02 00:40:18;;;;;;;48.72;27.63;;;10.50;99.90;;;;;;5042087;28;20116;-78
2023/05/02 00:42:43;;;;;;;50.75;31.27;;;10.50;99.90;;;;;;5025275;28;20053;-78
2023/05/02 00:45:09;;;;;;;47.03;30.08;;;10.50;99.90;;;;;;5025440;28;20028;-78
2023/05/02 00:47:35;;;;;;;49.05;31.05;;;10.50;99.90;;;;;;5023837;28;20159;-78
2023/05/02 00:50:00;;;;;;;49.53;29.63;;;10.50;99.90;;;;;;5025092;28;20120;-78
2023/05/02 00:52:26;;;;;;;36.50;23.35;;;10.60;99.90;;;;;;5025280;28;20063;-78
2023/05/02 00:54:52;;;;;;;50.20;31.70;;;10.70;99.90;;;;;;5009112;28;20053;-78
2023/05/02 00:57:18;;;;;;;45.35;28.88;;;10.70;99.90;;;;;;5011474;28;20064;-78
2023/05/02 00:59:43;;;;;;;52.60;30.92;;;10.70;99.90;;;;;;5043239;28;20029;-78
2023/05/02 01:02:12;;;;;;;49.38;29.00;;;10.80;99.90;;;;;;5027891;28;20029;-78
2023/05/02 01:04:49;;;;;;;53.25;32.03;;;10.90;99.90;;;;;;5040219;28;20462;-78
2023/05/02 01:07:45;;;;;;;31.92;21.13;;;10.80;99.90;;;;;;5042983;28;20025;-79
2023/05/02 01:10:51;;;;;;;50.10;31.33;;;10.90;99.90;;;;;;5043402;28;20113;-78
2023/05/02 01:13:21;;;;;;;46.00;28.83;;;10.80;99.90;;;;;;5042162;28;20401;-78
2023/05/02 01:15:47;;;;;;;32.78;19.55;;;10.80;99.90;;;;;;5028016;28;20102;-78
2023/05/02 01:18:13;;;;;;;49.35;31.15;;;10.70;99.90;;;;;;5028783;28;20031;-78
2023/05/02 01:20:41;;;;;;;48.63;32.45;;;10.60;99.90;;;;;;5010830;28;20048;-78
2023/05/02 01:23:30;;;;;;;43.25;26.83;;;10.60;99.90;;;;;;5027791;28;20492;-78
2023/05/02 01:25:59;;;;;;;52.72;33.20;;;10.50;99.90;;;;;;5043237;28;20457;-78
2023/05/02 01:28:35;;;;;;;51.20;34.10;;;10.50;99.90;;;;;;5034292;28;20064;-78
2023/05/02 01:31:02;;;;;;;56.47;36.13;;;10.50;99.90;;;;;;5043304;28;20366;-78
2023/05/02 01:33:27;;;;;;;34.25;23.50;;;10.60;99.90;;;;;;5027250;28;20733;-78
2023/05/02 01:35:53;;;;;;;59.90;35.22;;;10.50;99.90;;;;;;5010887;28;20025;-79
2023/05/02 01:38:18;;;;;;;46.00;28.67;;;10.50;99.90;;;;;;5028116;28;20040;-78
2023/05/02 01:40:44;;;;;;;53.28;31.15;;;10.50;99.90;;;;;;5027534;28;20098;-78
2023/05/02 01:43:11;;;;;;;48.67;30.90;;;10.60;99.90;;;;;;5044135;28;20463;-78
2023/05/02 01:45:37;;;;;;;52.50;32.40;;;10.70;99.90;;;;;;5027402;28;20039;-78
2023/05/02 01:48:03;;;;;;;53.28;35.72;;;10.70;99.90;;;;;;5022894;28;20029;-78
2023/05/02 01:50:29;;;;;;;62.53;37.10;;;10.70;99.90;;;;;;5011606;28;20029;-78
2023/05/02 01:52:55;;;;;;;56.35;33.63;;;10.60;99.90;;;;;;5024533;28;20037;-78
2023/05/02 01:55:20;;;;;;;63.35;35.03;;;10.60;99.90;;;;;;5043294;28;20036;-77
2023/05/02 01:57:46;;;;;;;63.35;36.13;;;10.60;99.90;;;;;;5010421;28;20071;-78
2023/05/02 02:00:12;;;;;;;45.13;26.60;;;10.60;99.90;;;;;;5044343;28;20112;-77
2023/05/02 02:02:40;;;;;;;49.20;27.83;;;10.80;99.90;;;;;;5039284;28;20709;-78
2023/05/02 02:05:06;;;;;;;49.30;28.55;;;10.70;99.90;;;;;;5041196;28;20503;-80
2023/05/02 02:07:31;;;;;;;41.15;24.13;;;10.80;99.90;;;;;;5043111;28;20037;-79
2023/05/02 02:09:57;;;;;;;42.72;25.65;;;10.80;99.90;;;;;;5042845;28;20048;-79
2023/05/02 02:12:38;;;;;;;30.45;18.83;;;10.80;99.90;;;;;;5011206;28;20040;-79
2023/05/02 02:15:18;;;;;;;42.03;24.05;;;10.90;99.90;;;;;;5024047;28;20488;-79
2023/05/02 02:17:49;;;;;;;40.90;23.45;;;10.80;99.90;;;;;;5009556;28;20534;-79
2023/05/02 02:20:14;;;;;;;39.63;21.88;;;10.90;99.90;;;;;;5011079;28;20058;-80
2023/05/02 02:22:41;;;;;;;36.03;21.88;;;10.80;99.90;;;;;;5026899;28;20039;-79
2023/05/02 02:25:10;;;;;;;38.38;22.50;;;10.80;99.90;;;;;;5041472;28;20684;-79
2023/05/02 02:27:36;;;;;;;35.10;21.05;;;10.80;99.90;;;;;;5026813;28;20029;-79
2023/05/02 02:30:03;;;;;;;35.53;21.08;;;10.70;99.90;;;;;;5026660;28;20116;-79
2023/05/02 02:32:28;;;;;;;35.92;20.88;;;10.90;99.90;;;;;;5008783;28;20078;-79
2023/05/02 02:34:54;;;;;;;37.03;21.02;;;10.90;99.90;;;;;;5042551;28;20033;-79
2023/05/02 02:37:25;;;;;;;38.22;20.95;;;10.90;99.90;;;;;;5026920;28;20110;-79
2023/05/02 02:40:11;;;;;;;35.95;19.63;;;10.90;99.90;;;;;;5010576;28;20048;-79
2023/05/02 02:43:03;;;;;;;31.50;17.33;;;10.80;99.90;;;;;;5042044;28;20465;-79
2023/05/02 02:46:01;;;;;;;28.08;14.73;;;10.80;99.90;;;;;;5042625;28;20108;-79
2023/05/02 02:48:33;;;;;;;39.33;19.35;;;10.80;99.90;;;;;;5014290;28;20125;-80
2023/05/02 02:51:11;;;;;;;30.17;18.25;;;10.70;99.90;;;;;;5040329;28;20098;-79
2023/05/02 02:54:15;;;;;;;27.38;14.70;;;10.70;99.90;;;;;;5040837;28;20388;-79
2023/05/02 02:56:41;;;;;;;27.42;15.70;;;10.80;99.90;;;;;;5013055;28;20083;-79
2023/05/02 02:59:13;;;;;;;31.70;17.50;;;10.90;99.90;;;;;;5026053;28;20080;-76
2023/05/02 03:01:40;;;;;;;33.28;16.90;;;10.90;99.90;;;;;;5026525;28;20274;-79
2023/05/02 03:04:07;;;;;;;35.67;18.80;;;10.90;99.90;;;;;;5024642;28;20036;-79
2023/05/02 03:06:33;;;;;;;27.80;16.00;;;10.80;99.90;;;;;;5026156;28;20048;-79
2023/05/02 03:08:58;;;;;;;26.60;15.07;;;10.90;99.90;;;;;;5026287;28;20508;-79
2023/05/02 03:11:24;;;;;;;27.33;15.32;;;10.90;99.90;;;;;;5043426;28;20040;-79
2023/05/02 03:13:51;;;;;;;26.45;15.20;;;10.90;99.90;;;;;;5042851;28;20056;-79
2023/05/02 03:16:35;;;;;;;27.17;14.68;;;10.80;99.90;;;;;;5041084;28;20112;-79
2023/05/02 03:19:02;;;;;;;23.05;11.93;;;10.80;99.90;;;;;;5022418;28;20836;-79
2023/05/02 03:21:30;;;;;;;25.17;13.70;;;10.80;99.90;;;;;;5008734;28;20058;-79
2023/05/02 03:23:59;;;;;;;21.92;11.85;;;10.80;99.90;;;;;;5027663;28;20044;-79
2023/05/02 03:26:25;;;;;;;19.70;12.80;;;10.80;99.90;;;;;;5022263;28;20037;-79
2023/05/02 03:28:51;;;;;;;22.42;12.45;;;10.80;99.90;;;;;;5027285;28;20753;-78
2023/05/02 03:31:16;;;;;;;21.48;12.82;;;11.00;99.90;;;;;;5010680;28;20063;-78
2023/05/02 03:33:42;;;;;;;20.88;13.00;;;10.90;99.90;;;;;;5042467;28;20029;-78
2023/05/02 03:36:08;;;;;;;28.38;14.15;;;10.80;99.90;;;;;;5010708;28;20033;-78
2023/05/02 03:38:33;;;;;;;23.90;12.65;;;10.80;99.90;;;;;;5027077;28;20050;-78
2023/05/02 03:40:59;;;;;;;24.02;12.57;;;10.80;99.90;;;;;;5039853;28;20040;-78
2023/05/02 03:43:24;;;;;;;22.58;12.88;;;10.70;99.90;;;;;;5026135;28;20033;-78
2023/05/02 03:45:50;;;;;;;18.83;10.90;;;10.80;99.90;;;;;;5003203;28;20092;-78
2023/05/02 03:48:15;;;;;;;22.23;11.25;;;10.80;99.90;;;;;;5025819;28;20025;-78
2023/05/02 03:50:42;;;;;;;22.15;11.32;;;10.90;99.90;;;;;;5039886;28;20082;-78
2023/05/02 03:53:08;;;;;;;17.20;10.00;;;10.90;99.90;;;;;;5038466;28;20061;-78
2023/05/02 03:55:38;;;;;;;17.73;9.68;;;10.90;99.90;;;;;;5026655;28;20511;-78
2023/05/02 03:58:04;;;;;;;17.98;10.35;;;10.90;99.90;;;;;;5019507;28;20032;-78
2023/05/02 04:00:30;;;;;;;17.33;9.40;;;10.90;99.90;;;;;;5026949;28;20098;-78
2023/05/02 04:02:56;;;;;;;22.90;11.25;;;10.90;99.90;;;;;;5022887;28;20052;-77
2023/05/02 04:05:21;;;;;;;19.35;10.30;;;10.80;99.90;;;;;;5023527;28;20064;-78
2023/05/02 04:07:47;;;;;;;19.55;10.85;;;10.90;99.90;;;;;;5044271;28;20094;-78
2023/05/02 04:10:15;;;;;;;13.80;7.28;;;10.80;99.90;;;;;;5010448;28;20025;-78
2023/05/02 04:12:42;;;;;;;20.85;11.70;;;10.90;99.90;;;;;;5010829;28;20480;-78
2023/05/02 04:15:08;;;;;;;17.13;9.88;;;10.90;99.90;;;;;;5024567;28;20550;-78
2023/05/02 04:17:34;;;;;;;22.85;11.05;;;10.90;99.90;;;;;;5026225;28;20029;-78
2023/05/02 04:19:59;;;;;;;25.92;13.05;;;10.90;99.90;;;;;;5042870;28;20029;-78
2023/05/02 04:22:25;;;;;;;19.15;10.73;;;10.80;99.90;;;;;;5010206;28;20040;-78
2023/05/02 04:24:51;;;;;;;20.23;10.60;;;10.80;99.90;;;;;;5026351;28;20148;-77
2023/05/02 04:27:16;;;;;;;15.50;9.25;;;10.90;99.90;;;;;;5023982;28;20112;-77
2023/05/02 04:29:42;;;;;;;21.73;11.13;;;11.00;99.90;;;;;;5026664;28;20228;-78
2023/05/02 04:32:08;;;;;;;21.95;11.57;;;10.90;99.90;;;;;;5043742;28;20509;-77
2023/05/02 04:34:33;;;;;;;16.50;8.73;;;10.90;99.90;;;;;;5030121;28;20032;-78
2023/05/02 04:37:00;;;;;;;12.05;8.13;;;10.90;99.90;;;;;;5029729;28;20074;-77
2023/05/02 04:39:25;;;;;;;15.52;9.20;;;11.00;99.90;;;;;;5013878;28;20029;-77
2023/05/02 04:41:51;;;;;;;28.10;13.32;;;11.00;99.90;;;;;;5028288;28;20400;-78
2023/05/02 04:44:17;;;;;;;22.75;11.60;;;10.90;99.90;;;;;;5029404;28;20400;-77
2023/05/02 04:46:43;;;;;;;22.85;12.85;;;10.90;99.90;;;;;;5045455;28;20048;-78
2023/05/02 04:49:09;;;;;;;19.80;11.07;;;10.90;99.90;;;;;;5029615;28;20508;-78
2023/05/02 04:51:34;;;;;;;17.77;10.82;;;10.90;99.90;;;;;;5029679;28;20025;-77
2023/05/02 04:54:00;;;;;;;29.55;15.57;;;10.90;99.90;;;;;;5028252;28;20125;-78
2023/05/02 04:56:26;;;;;;;18.15;10.88;;;10.90;99.90;;;;;;5045925;28;20029;-79
2023/05/02 04:58:51;;;;;;;15.23;9.02;;;10.90;99.90;;;;;;5043063;28;20052;-79
2023/05/02 05:01:17;;;;;;;15.45;8.75;;;11.00;99.90;;;;;;5028296;28;20522;-79
2023/05/02 05:03:42;;;;;;;18.17;10.93;;;10.90;99.90;;;;;;5025568;28;20049;-78
2023/05/02 05:06:08;;;;;;;14.48;8.93;;;10.90;99.90;;;;;;5021295;28;20448;-79
2023/05/02 05:08:33;;;;;;;24.40;13.77;;;11.00;99.90;;;;;;5026084;28;20133;-78
2023/05/02 05:10:59;;;;;;;22.83;13.98;;;10.90;99.90;;;;;;5027819;28;20040;-78
2023/05/02 05:13:24;;;;;;;25.02;13.68;;;10.90;99.90;;;;;;5008613;28;20572;-78
2023/05/02 05:15:50;;;;;;;27.88;15.75;;;10.90;99.90;;;;;;5026031;28;20635;-78
2023/05/02 05:18:16;;;;;;;14.80;10.20;;;10.80;99.90;;;;;;5043487;28;20451;-78
2023/05/02 05:20:41;;;;;;;20.83;13.48;;;10.80;99.90;;;;;;5043645;28;20056;-78
2023/05/02 05:23:07;;;;;;;22.20;13.90;;;10.80;99.90;;;;;;5028761;28;20055;-79
2023/05/02 05:25:32;;;;;;;23.95;13.85;;;10.80;99.90;;;;;;5026395;28;20135;-78
2023/05/02 05:28:01;;;;;;;16.10;12.23;;;10.70;99.90;;;;;;5027496;28;20083;-78
2023/05/02 05:30:26;;;;;;;16.48;10.32;;;10.60;99.90;;;;;;5026675;28;20025;-78
2023/05/02 05:32:52;;;;;;;15.05;10.50;;;10.60;99.90;;;;;;5009521;28;20091;-79
2023/05/02 05:35:18;;;;;;;14.18;9.10;;;10.60;99.90;;;;;;5043547;28;20532;-80
2023/05/02 05:37:43;;;;;;;19.30;11.00;;;10.60;99.90;;;;;;5003645;28;20037;-79
2023/05/02 05:40:09;;;;;;;13.38;9.23;;;10.70;99.90;;;;;;5028360;28;20048;-80
2023/05/02 05:42:35;;;;;;;16.25;11.43;;;10.70;99.90;;;;;;5044364;28;20037;-80
2023/05/02 05:45:00;;;;;;;18.40;12.63;;;10.60;99.90;;;;;;5043892;28;20079;-80
2023/05/02 05:47:26;;;;;;;16.90;11.90;;;10.60;99.90;;;;;;5025387;28;20035;-79
2023/05/02 05:49:53;;;;;;;18.75;10.50;;;10.50;99.90;;;;;;5042360;28;20033;-80
2023/05/02 05:52:18;;;;;;;15.65;10.57;;;10.60;99.90;;;;;;5026700;28;20029;-80
2023/05/02 05:54:44;;;;;;;13.52;9.07;;;10.60;99.90;;;;;;5026812;28;20483;-79
2023/05/02 05:57:09;;;;;;;14.32;8.95;;;10.50;99.90;;;;;;5026403;28;20035;-80
2023/05/02 05:59:35;;;;;;;14.00;7.53;;;10.50;99.90;;;;;;5043295;28;20132;-79
2023/05/02 06:02:01;;;;;;;12.32;7.95;;;10.60;99.90;;;;;;5008497;28;20045;-78
2023/05/02 06:04:26;;;;;;;16.13;8.45;;;10.60;99.90;;;;;;5027420;28;20125;-79
2023/05/02 06:06:52;;;;;;;11.60;7.85;;;10.60;99.90;;;;;;5009323;28;20049;-78
2023/05/02 06:09:18;;;;;;;12.93;8.18;;;10.60;99.90;;;;;;5023713;28;20101;-81
2023/05/02 06:11:43;;;;;;;18.00;7.85;;;10.60;99.90;;;;;;5007456;28;20058;-79
2023/05/02 06:14:09;;;;;;;11.57;6.68;;;10.60;99.90;;;;;;5023212;28;20033;-80
2023/05/02 06:16:35;;;;;;;12.02;6.90;;;10.60;99.90;;;;;;5008724;28;20120;-80
2023/05/02 06:19:00;;;;;;;13.15;6.88;;;10.60;99.90;;;;;;5024808;28;20116;-80
2023/05/02 06:21:26;;;;;;;13.25;7.10;;;10.50;99.90;;;;;;5023071;28;20083;-80
2023/05/02 06:23:52;;;;;;;14.05;7.18;;;10.50;99.90;;;;;;5009590;28;20048;-80
2023/05/02 06:26:18;;;;;;;10.23;5.93;;;10.60;99.90;;;;;;5009337;28;20033;-80
2023/05/02 06:28:44;;;;;;;8.88;5.78;;;10.60;99.90;;;;;;5009887;28;20405;-79
2023/05/02 06:31:09;;;;;;;11.43;6.32;;;10.60;99.90;;;;;;5026219;28;20036;-80
2023/05/02 06:33:35;;;;;;;14.63;6.20;;;10.70;99.90;;;;;;5007716;28;20112;-81
2023/05/02 06:36:01;;;;;;;13.52;6.18;;;10.80;99.90;;;;;;5021928;28;20043;-81
2023/05/02 06:38:26;;;;;;;12.65;6.18;;;10.80;99.90;;;;;;5006482;28;20029;-80
2023/05/02 06:40:52;;;;;;;10.23;5.15;;;10.90;99.90;;;;;;5008654;28;20095;-80
2023/05/02 06:43:18;;;;;;;9.55;4.35;;;11.10;99.90;;;;;;5022993;28;20033;-80
2023/05/02 06:45:43;;;;;;;4.97;3.22;;;11.20;99.90;;;;;;5008452;28;20396;-80
2023/05/02 06:48:09;;;;;;;8.02;4.05;;;11.20;99.90;;;;;;5043163;28;20116;-80
2023/05/02 06:50:35;;;;;;;10.35;3.25;;;11.30;99.90;;;;;;5036612;28;20037;-81
2023/05/02 06:53:01;;;;;;;6.55;3.25;;;11.40;99.90;;;;;;5010283;28;20040;-80
2023/05/02 06:55:26;;;;;;;5.68;3.20;;;11.40;99.90;;;;;;5007242;28;20033;-80
2023/05/02 06:57:53;;;;;;;9.82;4.28;;;11.60;99.90;;;;;;5021640;28;20173;-80
2023/05/02 07:00:18;;;;;;;10.35;3.80;;;11.70;99.90;;;;;;5008764;28;20116;-80
2023/05/02 07:02:48;;;;;;;10.05;4.10;;;11.80;99.90;;;;;;5009517;28;20123;-80
2023/05/02 07:05:14;;;;;;;9.55;4.60;;;11.90;99.90;;;;;;5024940;28;20037;-80
2023/05/02 07:07:42;;;;;;;12.00;4.40;;;11.90;99.90;;;;;;5007199;28;20124;-80
2023/05/02 07:10:09;;;;;;;6.95;3.90;;;12.00;99.90;;;;;;5026178;28;20517;-80
2023/05/02 07:12:34;;;;;;;6.95;4.10;;;12.10;99.90;;;;;;5009709;28;20037;-80
2023/05/02 07:15:00;;;;;;;7.47;3.70;;;12.20;99.90;;;;;;5025729;28;20114;-80
2023/05/02 07:17:26;;;;;;;9.73;3.88;;;12.30;99.90;;;;;;5007230;28;20048;-80
2023/05/02 07:19:52;;;;;;;5.85;3.10;;;12.30;99.90;;;;;;5003688;28;20037;-79
2023/05/02 07:22:17;;;;;;;8.27;4.13;;;12.30;99.90;;;;;;5009447;28;20029;-79
2023/05/02 07:24:43;;;;;;;13.45;5.95;;;12.30;99.90;;;;;;5041330;28;20025;-79
2023/05/02 07:27:09;;;;;;;11.23;4.63;;;12.30;99.90;;;;;;5023423;28;20031;-79
2023/05/02 07:29:34;;;;;;;8.07;4.50;;;12.20;99.90;;;;;;5022226;28;20025;-79
2023/05/02 07:32:00;;;;;;;9.80;5.30;;;12.10;99.90;;;;;;5008235;28;20108;-79
2023/05/02 07:34:25;;;;;;;8.93;4.63;;;12.00;99.90;;;;;;5041147;28;20025;-79
2023/05/02 07:36:51;;;;;;;12.00;4.18;;;11.80;99.90;;;;;;5006961;28;20029;-79
2023/05/02 07:39:17;;;;;;;8.20;3.85;;;11.70;99.90;;;;;;5010513;28;20029;-79
2023/05/02 07:41:42;;;;;;;8.27;4.60;;;11.70;99.90;;;;;;5040105;28;20032;-79
2023/05/02 07:44:08;;;;;;;8.60;3.95;;;11.50;99.90;;;;;;5021993;28;20033;-79
2023/05/02 07:46:33;;;;;;;8.98;4.03;;;11.30;99.90;;;;;;5008106;28;20088;-79
2023/05/02 07:48:59;;;;;;;7.50;4.13;;;11.20;99.90;;;;;;5005060;28;20033;-79
2023/05/02 07:51:25;;;;;;;9.10;5.43;;;11.10;99.90;;;;;;5008523;28;20032;-79
2023/05/02 07:53:57;;;;;;;9.77;5.55;;;11.00;99.90;;;;;;5008572;28;20519;-79
2023/05/02 07:56:23;;;;;;;8.32;5.22;;;11.00;99.90;;;;;;5024282;28;20487;-79
2023/05/02 07:58:50;;;;;;;6.53;4.28;;;10.90;99.90;;;;;;5023408;28;20043;-79
2023/05/02 08:01:16;;;;;;;9.52;6.15;;;10.90;99.90;;;;;;5023439;28;20036;-79
2023/05/02 08:03:41;;;;;;;6.60;4.78;;;10.80;99.90;;;;;;5041597;28;20040;-79
2023/05/02 08:06:08;;;;;;;6.05;3.97;;;10.70;99.90;;;;;;5025428;28;20029;-79
2023/05/02 08:08:34;;;;;;;3.72;3.17;;;10.60;99.90;;;;;;5011197;28;20107;-79
2023/05/02 08:11:00;;;;;;;5.35;2.75;;;10.60;99.90;;;;;;5028545;28;20040;-78
2023/05/02 08:13:26;;;;;;;6.03;3.47;;;10.60;99.90;;;;;;5027307;28;20033;-79
2023/05/02 08:15:56;;;;;;;5.50;2.97;;;10.60;99.90;;;;;;5008358;28;20042;-79
2023/05/02 08:18:25;;;;;;;2.88;2.58;;;10.60;99.90;;;;;;5045630;28;20025;-77
2023/05/02 08:20:50;;;;;;;5.55;3.22;;;10.70;99.90;;;;;;5026805;28;20641;-77
2023/05/02 08:23:16;;;;;;;3.65;3.03;;;10.60;99.90;;;;;;5045867;28;20025;-78
2023/05/02 08:25:41;;;;;;;5.10;3.13;;;10.80;99.90;;;;;;5028630;28;20086;-78
2023/05/02 08:28:07;;;;;;;3.38;2.65;;;10.90;99.90;;;;;;5028011;28;20396;-77
2023/05/02 08:30:33;;;;;;;8.20;2.65;;;10.90;99.90;;;;;;5029129;28;20037;-78
2023/05/02 08:32:58;;;;;;;9.38;2.58;;;11.00;99.90;;;;;;5012226;28;20037;-77
2023/05/02 08:35:24;;;;;;;3.97;2.72;;;11.10;99.90;;;;;;5011980;28;20031;-78
2023/05/02 08:37:49;;;;;;;4.50;2.45;;;11.20;99.90;;;;;;5008333;28;20040;-77
2023/05/02 08:40:15;;;;;;;6.05;2.30;;;11.30;99.90;;;;;;5024279;28;20037;-77
2023/05/02 08:42:42;;;;;;;2.55;2.25;;;11.30;99.90;;;;;;5012029;28;20492;-78
2023/05/02 08:45:08;;;;;;;5.20;2.25;;;11.30;99.90;;;;;;5009420;28;20444;-77
2023/05/02 08:47:34;;;;;;;2.83;2.33;;;11.20;99.90;;;;;;5027405;28;20124;-78
2023/05/02 08:50:00;;;;;;;5.18;3.40;;;11.00;99.90;;;;;;5010738;28;20136;-77
2023/05/02 08:52:25;;;;;;;8.30;4.22;;;10.90;99.90;;;;;;5027711;28;20033;-77
2023/05/02 08:54:51;;;;;;;5.57;3.90;;;10.80;99.90;;;;;;5023279;28;20512;-78
2023/05/02 08:57:17;;;;;;;5.82;3.78;;;10.60;99.90;;;;;;5042497;28;20033;-78
2023/05/02 08:59:42;;;;;;;12.07;5.30;;;10.50;99.90;;;;;;5026833;28;20036;-77
2023/05/02 09:02:39;;;;;;;8.30;3.88;;;10.40;99.90;;;;;;5011536;28;20166;-78
2023/05/02 09:05:07;;;;;;;;;;;10.30;99.90;;;;;;5026477;28;20493;-80
2023/05/02 09:07:46;;;;;;;7.65;3.35;;;10.30;99.90;;;;;;5045341;28;20288;-80
2023/05/02 09:10:12;;;;;;;7.82;3.60;;;10.20;99.90;;;;;;5005546;28;20037;-80
2023/05/02 09:12:38;;;;;;;6.03;4.65;;;10.10;99.90;;;;;;5011227;28;20044;-79
2023/05/02 09:15:14;;;;;;;7.68;5.28;;;10.20;99.90;;;;;;5010891;28;20116;-79
2023/05/02 09:17:41;;;;;;;10.50;5.30;;;10.00;99.90;;;;;;5023520;28;20037;-79
2023/05/02 09:20:07;;;;;;;8.38;5.65;;;10.00;99.90;;;;;;5008959;28;20127;-79
2023/05/02 09:22:33;;;;;;;8.88;5.13;;;10.10;99.90;;;;;;5010649;28;20417;-80
2023/05/02 09:24:59;;;;;;;8.70;5.65;;;10.20;99.90;;;;;;5027232;28;20018;-79
2023/05/02 09:27:26;;;;;;;9.82;5.90;;;10.20;99.90;;;;;;5023725;28;20461;-79
2023/05/02 09:29:51;;;;;;;10.18;5.32;;;10.20;99.90;;;;;;5009895;28;20107;-79
2023/05/02 09:32:17;;;;;;;6.47;5.03;;;10.20;99.90;;;;;;5008848;28;20185;-78
2023/05/02 09:35:05;;;;;;;9.98;5.45;;;10.20;99.90;;;;;;5043876;28;20098;-78
2023/05/02 09:37:34;;;;;;;8.30;5.20;;;10.30;99.90;;;;;;5040434;28;20029;-78
2023/05/02 09:40:08;;;;;;;9.48;4.70;;;10.40;99.90;;;;;;5024539;28;20036;-78
2023/05/02 09:42:33;;;;;;;13.63;6.32;;;10.40;99.90;;;;;;5026935;28;20029;-78
2023/05/02 09:44:59;;;;;;;5.85;3.55;;;10.50;99.90;;;;;;5022810;28;20056;-78
2023/05/02 09:47:27;;;;;;;9.13;3.95;;;10.60;99.90;;;;;;5009824;28;20458;-78
2023/05/02 09:49:53;;;;;;;9.45;3.10;;;10.70;99.90;;;;;;5025656;28;20036;-78
2023/05/02 09:52:22;;;;;;;4.32;2.63;;;11.00;99.90;;;;;;5010172;28;20029;-78
2023/05/02 09:54:51;;;;;;;5.78;2.70;;;11.10;99.90;;;;;;5010002;28;20148;-78
2023/05/02 09:57:17;;;;;;;6.03;2.42;;;11.30;99.90;;;;;;5011622;28;20033;-78
2023/05/02 09:59:56;;;;;;;6.65;2.42;;;11.50;99.90;;;;;;5042680;28;20037;-78
2023/05/02 10:02:21;;;;;;;5.95;2.58;;;11.70;99.90;;;;;;5008990;28;20036;-78
2023/05/02 10:04:47;;;;;;;7.75;3.13;;;12.00;99.90;;;;;;5008577;28;20405;-78
2023/05/02 10:07:12;;;;;;;8.63;3.20;;;12.20;99.90;;;;;;5010057;28;20381;-77
2023/05/02 10:09:42;;;;;;;8.18;3.63;;;12.40;99.90;;;;;;5042402;28;20025;-77
2023/05/02 10:12:07;;;;;;;9.82;5.22;;;12.60;99.90;;;;;;5024989;28;20440;-78
2023/05/02 10:14:38;;;;;;;7.55;3.88;;;12.90;99.90;;;;;;5027682;28;20079;-78
2023/05/02 10:17:08;;;;;;;5.78;3.13;;;13.20;99.90;;;;;;5009374;28;20021;-77
2023/05/02 10:19:53;;;;;;;7.93;3.58;;;13.40;99.90;;;;;;5009714;28;20043;-77
2023/05/02 10:22:19;;;;;;;11.05;4.85;;;13.70;99.90;;;;;;5025821;28;20116;-77
2023/05/02 10:24:47;;;;;;;8.82;4.75;;;14.00;99.90;;;;;;5021015;28;20144;-78
2023/05/02 10:27:13;;;;;;;9.52;4.70;;;14.30;99.90;;;;;;5025777;28;20400;-77
2023/05/02 10:29:38;;;;;;;12.20;5.00;;;14.60;99.90;;;;;;5008176;28;20025;-78
2023/05/02 10:32:04;;;;;;;14.52;4.38;;;14.90;99.90;;;;;;5023882;28;20044;-78
2023/05/02 10:34:31;;;;;;;7.03;4.53;;;15.30;99.90;;;;;;5006750;28;20037;-77
2023/05/02 10:37:00;;;;;;;7.82;4.10;;;15.70;99.90;;;;;;5007249;28;20416;-77
2023/05/02 10:39:26;;;;;;;7.70;4.25;;;15.80;99.90;;;;;;5010021;28;20037;-77
2023/05/02 10:41:52;;;;;;;8.35;3.83;;;16.00;99.90;;;;;;5025111;28;20455;-77
2023/05/02 10:44:36;;;;;;;7.90;3.85;;;16.50;99.90;;;;;;5009969;28;20492;-77
2023/05/02 10:47:37;;;;;;;8.25;3.42;;;16.60;99.90;;;;;;5008482;28;20548;-77
2023/05/02 10:50:04;;;;;;;8.45;4.25;;;17.00;99.90;;;;;;4966235;28;20030;-78
2023/05/02 10:52:34;;;;;;;14.15;4.93;;;17.60;99.90;;;;;;5009170;28;20082;-78
2023/05/02 10:55:19;;;;;;;10.70;3.85;;;17.70;99.90;;;;;;5004254;28;20440;-78
2023/05/02 10:57:57;;;;;;;8.95;3.63;;;18.10;99.90;;;;;;5042051;28;20032;-77
2023/05/02 11:00:27;;;;;;;8.10;3.33;;;18.10;99.90;;;;;;5044835;28;20044;-77
2023/05/02 11:02:53;;;;;;;5.88;3.13;;;17.90;99.90;;;;;;5024563;28;20044;-77
2023/05/02 11:05:20;;;;;;;9.85;2.90;;;17.90;99.90;;;;;;5041572;28;20121;-77
2023/05/02 11:07:45;;;;;;;8.45;3.10;;;17.80;99.90;;;;;;5008919;28;20032;-77
2023/05/02 11:10:17;;;;;;;6.45;2.83;;;17.50;99.90;;;;;;5023037;28;20462;-78
2023/05/02 11:12:47;;;;;;;14.40;2.90;;;17.40;99.90;;;;;;5043286;28;20040;-78
2023/05/02 11:15:21;;;;;;;5.88;2.80;;;17.30;99.90;;;;;;5023672;28;20389;-79
2023/05/02 11:18:06;;;;;;;9.93;3.05;;;17.20;99.90;;;;;;5040319;28;20048;-77
2023/05/02 11:20:32;;;;;;;8.32;4.03;;;17.20;99.90;;;;;;5040789;28;20455;-77
2023/05/02 11:22:59;;;;;;;6.00;3.42;;;17.10;99.90;;;;;;5041378;28;20048;-77
2023/05/02 11:25:31;;;;;;;15.13;2.75;;;17.00;99.90;;;;;;5005050;28;20037;-77
2023/05/02 11:27:57;;;;;;;9.95;2.90;;;17.00;99.90;;;;;;5024713;28;20033;-78
2023/05/02 11:30:40;;;;;;;6.43;2.80;;;16.90;99.90;;;;;;5042780;28;20442;-78
2023/05/02 11:33:06;;;;;;;9.18;2.20;;;16.80;99.90;;;;;;5024885;28;20031;-78
2023/05/02 11:35:31;;;;;;;12.75;3.05;;;16.80;99.90;;;;;;5044615;28;20040;-81
2023/05/02 11:38:02;;;;;;;6.03;2.28;;;16.70;99.90;;;;;;5020294;28;20399;-81
2023/05/02 11:40:27;;;;;;;7.07;2.10;;;16.50;99.90;;;;;;5038922;28;20034;-81
2023/05/02 11:42:53;;;;;;;6.55;2.60;;;16.60;99.90;;;;;;5043755;28;20105;-82
2023/05/02 11:45:22;;;;;;;8.32;2.05;;;16.60;99.90;;;;;;5025603;28;20435;-82
2023/05/02 11:47:49;;;;;;;4.72;2.08;;;16.80;99.90;;;;;;5010468;28;20061;-82
2023/05/02 11:50:14;;;;;;;6.65;2.72;;;17.10;99.90;;;;;;5007401;28;20536;-82
2023/05/02 11:52:41;;;;;;;6.50;2.20;;;17.30;99.90;;;;;;5004381;28;20094;-81
2023/05/02 11:55:11;;;;;;;7.65;2.60;;;17.40;99.90;;;;;;5022395;28;20025;-81
2023/05/02 11:57:37;;;;;;;8.05;2.80;;;17.70;99.90;;;;;;5022453;28;20021;-81
2023/05/02 12:00:02;;;;;;;3.90;1.77;;;18.10;99.90;;;;;;5023714;28;20033;-81
2023/05/02 12:02:41;;;;;;;5.68;2.33;;;18.20;99.90;;;;;;5023531;28;20105;-81
2023/05/02 12:05:08;;;;;;;4.28;2.25;;;18.40;99.90;;;;;;5034534;28;20087;-81
2023/05/02 12:07:43;;;;;;;4.50;1.85;;;18.80;99.90;;;;;;5006357;28;20024;-82
2023/05/02 12:10:09;;;;;;;5.20;2.87;;;18.90;99.90;;;;;;5019705;28;20527;-82
2023/05/02 12:12:35;;;;;;;7.03;2.40;;;19.10;99.90;;;;;;5006769;28;20037;-82
2023/05/02 12:15:08;;;;;;;6.55;2.90;;;18.80;99.90;;;;;;5007799;28;20056;-81
2023/05/02 12:17:36;;;;;;;5.53;2.67;;;18.90;99.90;;;;;;5007907;28;20029;-81
2023/05/02 12:20:05;;;;;;;7.93;3.08;;;19.00;99.90;;;;;;5016024;28;20678;-81
2023/05/02 12:22:31;;;;;;;4.63;2.33;;;19.10;95.70;;;;;;5005857;28;20445;-81
2023/05/02 12:24:56;;;;;;;4.90;1.98;;;19.00;96.70;;;;;;5007663;28;20025;-80
2023/05/02 12:27:22;;;;;;;6.45;2.38;;;19.00;98.40;;;;;;5006556;28;20057;-81
2023/05/02 12:29:48;;;;;;;6.28;2.58;;;19.30;99.60;;;;;;5023674;28;20029;-81
2023/05/02 12:32:14;;;;;;;4.13;2.20;;;19.50;95.40;;;;;;5006188;28;20040;-80
2023/05/02 12:34:40;;;;;;;4.97;2.20;;;19.40;96.90;;;;;;5007474;28;20024;-80
2023/05/02 12:37:06;;;;;;;3.25;1.73;;;19.40;97.60;;;;;;5022255;28;20025;-80
2023/05/02 12:39:41;;;;;;;3.58;1.70;;;19.90;95.80;;;;;;5023394;28;20044;-80
2023/05/02 12:42:10;;;;;;;4.47;2.00;;;20.00;95.40;;;;;;5023346;28;20087;-81